Time;durP1;ratioP1;P1;durP2;ratioP2;P2;SDS_P1;SDS_P2;PMS_P1;PMS_P2;Temp;Humidity;BMP_temperature;BMP_pressure;BME280_temperature;BME280_humidity;BME280_pressure;Samples;Min_cycle;Max_cycle;Signal;HPM_P1;HPM_P2
2023/05/16 00:00:05;;;;;;;16.30;6.05;;;;;;;8.27;100.00;101647.44;5040818;28;20068;-77
2023/05/16 00:02:33;;;;;;;18.75;9.70;;;;;;;8.27;100.00;101647.44;5039712;28;20036;-77
2023/05/16 00:05:03;;;;;;;15.77;6.45;;;;;;;8.32;100.00;101637.44;5031508;28;20116;-78
2023/05/16 00:07:31;;;;;;;7.78;4.38;;;;;;;8.34;100.00;101647.03;5038937;28;20029;-77
2023/05/16 00:10:01;;;;;;;14.52;5.50;;;;;;;8.41;100.00;101643.03;5041498;28;20045;-78
2023/05/16 00:12:31;;;;;;;7.80;3.28;;;;;;;8.47;100.00;101640.03;5038905;28;20075;-77
2023/05/16 00:15:00;;;;;;;3.30;0.80;;;;;;;8.53;100.00;101650.16;5040410;28;20025;-77
2023/05/16 00:17:27;;;;;;;10.45;1.48;;;;;;;8.59;100.00;101641.03;5041934;28;20033;-77
2023/05/16 00:19:57;;;;;;;5.60;0.77;;;;;;;8.65;100.00;101642.41;5036428;28;20061;-78
2023/05/16 00:22:27;;;;;;;3.88;0.77;;;;;;;8.72;100.00;101641.06;5035904;28;20029;-77
2023/05/16 00:24:57;;;;;;;6.68;1.08;;;;;;;8.76;100.00;101645.16;5041053;28;20109;-77
2023/05/16 00:27:26;;;;;;;2.03;0.63;;;;;;;8.77;100.00;101643.38;5039619;28;20033;-78
2023/05/16 00:29:56;;;;;;;2.95;0.80;;;;;;;8.81;100.00;101643.09;5038232;28;20021;-78
2023/05/16 00:32:25;;;;;;;4.03;0.73;;;;;;;8.84;100.00;101642.03;5038669;28;20052;-78
2023/05/16 00:34:53;;;;;;;5.38;0.70;;;;;;;8.87;100.00;101638.34;5036206;28;20025;-78
2023/05/16 00:37:23;;;;;;;4.28;1.00;;;;;;;8.90;100.00;101636.31;5040698;28;20128;-78
2023/05/16 00:39:53;;;;;;;5.40;1.08;;;;;;;8.83;100.00;101639.47;5033777;28;20456;-78
2023/05/16 00:42:22;;;;;;;4.70;1.15;;;;;;;8.82;100.00;101636.03;5035531;28;20033;-77
2023/05/16 00:44:52;;;;;;;3.58;0.82;;;;;;;8.82;100.00;101633.38;5036225;28;20114;-78
2023/05/16 00:47:21;;;;;;;6.25;0.80;;;;;;;8.79;100.00;101629.16;5026074;28;20103;-77
2023/05/16 00:49:49;;;;;;;3.03;0.75;;;;;;;8.79;100.00;101626.50;5042632;28;20040;-77
2023/05/16 00:52:19;;;;;;;9.07;1.45;;;;;;;8.77;100.00;101627.56;5038951;28;20026;-77
2023/05/16 00:54:50;;;;;;;4.80;0.80;;;;;;;8.66;100.00;101617.75;5039985;28;20564;-78
2023/05/16 00:57:20;;;;;;;2.42;0.60;;;;;;;8.58;100.00;101622.69;5023489;28;20072;-77
2023/05/16 00:59:49;;;;;;;3.22;0.70;;;;;;;8.49;100.00;101621.47;5043775;28;20033;-77
2023/05/16 01:02:17;;;;;;;6.55;1.60;;;;;;;8.40;100.00;101621.13;5046313;28;20139;-78
2023/05/16 01:04:48;;;;;;;5.10;1.20;;;;;;;8.35;100.00;101623.22;5061896;28;20504;-77
2023/05/16 01:07:18;;;;;;;5.30;0.90;;;;;;;8.32;100.00;101623.41;5043062;28;21075;-77
2023/05/16 01:09:48;;;;;;;2.80;0.70;;;;;;;8.27;100.00;101626.34;5038928;28;20029;-77
2023/05/16 01:12:25;;;;;;;2.70;0.77;;;;;;;8.25;100.00;101622.97;5001013;28;20098;-77
2023/05/16 01:15:15;;;;;;;2.38;0.90;;;;;;;8.17;100.00;101631.38;5048224;28;20382;-78
2023/05/16 01:18:25;;;;;;;1.60;0.50;;;;;;;8.18;100.00;101626.97;5047220;28;20076;-77
2023/05/16 01:21:02;;;;;;;3.90;0.80;;;;;;;8.14;100.00;101625.44;5046090;28;20033;-77
2023/05/16 01:23:42;;;;;;;3.42;0.70;;;;;;;8.15;100.00;101628.00;5016012;28;20458;-77
2023/05/16 01:26:16;;;;;;;0.98;0.60;;;;;;;8.17;100.00;101612.94;5024322;28;20515;-77
2023/05/16 01:28:47;;;;;;;3.35;0.70;;;;;;;8.14;100.00;101615.75;5030263;28;20571;-77
2023/05/16 01:31:18;;;;;;;4.57;0.70;;;;;;;8.13;100.00;101621.13;5048499;28;20041;-77
2023/05/16 01:33:48;;;;;;;1.98;0.63;;;;;;;8.09;100.00;101617.03;5030785;28;20068;-77
2023/05/16 01:36:41;;;;;;;4.57;0.70;;;;;;;8.03;100.00;101619.09;5049768;28;20064;-77
2023/05/16 01:39:37;;;;;;;4.53;0.60;;;;;;;7.97;100.00;101616.00;5056249;28;20040;-77
2023/05/16 01:42:14;;;;;;;4.57;0.70;;;;;;;7.96;100.00;101616.97;5031683;28;20053;-77
2023/05/16 01:44:56;;;;;;;6.20;1.00;;;;;;;7.92;100.00;101616.31;5040587;28;20033;-77
2023/05/16 01:47:29;;;;;;;6.75;1.00;;;;;;;7.91;100.00;101615.47;5047038;28;20056;-77
2023/05/16 01:50:25;;;;;;;3.88;0.70;;;;;;;7.90;100.00;101616.41;5040550;28;20057;-77
2023/05/16 01:53:00;;;;;;;;;;;;;;;7.78;100.00;101614.53;5043821;28;20075;-78
2023/05/16 01:55:47;;;;;;;4.13;0.75;;;;;;;7.82;100.00;101614.25;5043938;28;19935;-77
2023/05/16 01:58:20;;;;;;;6.53;0.80;;;;;;;7.82;100.00;101614.25;5005964;28;20044;-77
2023/05/16 02:00:48;;;;;;;6.90;0.88;;;;;;;7.78;100.00;101611.91;5011142;28;20038;-77
2023/05/16 02:03:15;;;;;;;4.00;0.68;;;;;;;7.79;100.00;101608.31;5009327;28;20049;-77
2023/05/16 02:05:45;;;;;;;6.57;1.13;;;;;;;7.76;100.00;101608.53;5017538;28;20036;-77
2023/05/16 02:08:14;;;;;;;3.45;1.20;;;;;;;7.77;100.00;101610.22;5013473;28;20037;-78
2023/05/16 02:10:42;;;;;;;5.53;1.42;;;;;;;7.75;100.00;101606.84;5010372;28;20036;-77
2023/05/16 02:13:09;;;;;;;7.70;1.33;;;;;;;7.71;100.00;101610.63;4985924;28;20070;-75
2023/05/16 02:15:38;;;;;;;5.80;0.73;;;;;;;7.71;100.00;101605.38;5010099;28;20104;-76
2023/05/16 02:18:05;;;;;;;3.83;0.80;;;;;;;7.65;100.00;101601.31;5011562;28;20037;-78
2023/05/16 02:20:32;;;;;;;4.32;0.82;;;;;;;7.62;100.00;101609.41;5008572;28;20054;-77
2023/05/16 02:23:02;;;;;;;4.88;0.70;;;;;;;7.55;100.00;101606.28;5005071;28;20033;-77
2023/05/16 02:25:31;;;;;;;1.88;0.68;;;;;;;7.49;100.00;101610.16;5010910;28;20112;-77
2023/05/16 02:28:00;;;;;;;4.20;1.15;;;;;;;7.44;100.00;101615.72;5003784;28;20026;-77
2023/05/16 02:30:27;;;;;;;3.47;0.75;;;;;;;7.38;100.00;101609.97;5011229;28;20030;-78
2023/05/16 02:32:55;;;;;;;2.90;0.80;;;;;;;7.37;100.00;101608.28;5009660;28;20049;-75
2023/05/16 02:35:23;;;;;;;2.58;0.70;;;;;;;7.32;100.00;101601.53;5005768;28;20058;-75
2023/05/16 02:37:51;;;;;;;4.93;0.90;;;;;;;7.30;100.00;101605.19;4990152;28;20088;-77
2023/05/16 02:40:19;;;;;;;4.50;0.73;;;;;;;7.25;100.00;101604.63;5011103;28;20030;-77
2023/05/16 02:42:47;;;;;;;5.50;0.85;;;;;;;7.24;100.00;101611.69;5008878;28;20064;-78
2023/05/16 02:45:15;;;;;;;4.95;0.77;;;;;;;7.22;100.00;101617.97;5007744;28;20513;-77
2023/05/16 02:47:43;;;;;;;3.97;1.00;;;;;;;7.23;100.00;101612.59;4997484;28;20046;-78
2023/05/16 02:50:11;;;;;;;3.28;0.95;;;;;;;7.21;100.00;101614.50;4994231;28;20034;-78
2023/05/16 02:52:38;;;;;;;3.17;0.80;;;;;;;7.18;100.00;101617.31;5011820;28;20499;-77
2023/05/16 02:55:07;;;;;;;6.80;1.20;;;;;;;7.11;100.00;101619.47;5010409;28;20037;-77
2023/05/16 02:57:36;;;;;;;3.60;1.13;;;;;;;7.12;100.00;101615.06;5036014;28;20469;-77
2023/05/16 03:00:09;;;;;;;5.45;0.80;;;;;;;7.15;100.00;101613.06;5047971;28;20037;-77
2023/05/16 03:02:38;;;;;;;3.90;0.98;;;;;;;7.20;100.00;101615.41;5047405;28;20124;-77
2023/05/16 03:05:08;;;;;;;3.13;0.73;;;;;;;7.24;100.00;101608.19;5011190;28;20033;-77
2023/05/16 03:07:37;;;;;;;4.30;1.00;;;;;;;7.31;100.00;101614.78;5040193;28;20037;-77
2023/05/16 03:10:06;;;;;;;2.85;1.23;;;;;;;7.34;100.00;101613.75;5046564;28;20033;-77
2023/05/16 03:12:34;;;;;;;4.38;1.05;;;;;;;7.37;100.00;101621.44;5045985;28;20036;-77
2023/05/16 03:15:03;;;;;;;4.68;0.85;;;;;;;7.37;100.00;101618.81;5048191;28;20052;-77
2023/05/16 03:17:31;;;;;;;2.33;0.80;;;;;;;7.37;100.00;101616.19;5039901;28;20052;-77
2023/05/16 03:19:59;;;;;;;2.90;0.80;;;;;;;7.37;100.00;101614.41;5045641;28;20029;-77
2023/05/16 03:22:28;;;;;;;5.03;1.02;;;;;;;7.37;100.00;101616.19;5030281;28;20425;-77
2023/05/16 03:24:56;;;;;;;7.03;1.60;;;;;;;7.32;100.00;101611.22;5045938;28;20451;-77
2023/05/16 03:27:26;;;;;;;7.13;1.33;;;;;;;7.31;100.00;101612.97;5042982;28;20039;-77
2023/05/16 03:29:54;;;;;;;3.78;0.90;;;;;;;7.28;100.00;101609.69;5039716;28;20037;-77
2023/05/16 03:32:23;;;;;;;4.55;1.00;;;;;;;7.28;100.00;101609.69;5028583;28;20037;-77
2023/05/16 03:34:50;;;;;;;3.55;0.70;;;;;;;7.17;100.00;101608.56;5017466;28;20037;-77
2023/05/16 03:37:18;;;;;;;9.18;1.10;;;;;;;7.13;100.00;101612.34;5038944;28;20646;-77
2023/05/16 03:39:46;;;;;;;3.42;0.85;;;;;;;7.10;100.00;101614.31;5044407;28;20118;-77
2023/05/16 03:42:16;;;;;;;3.17;0.98;;;;;;;7.08;100.00;101617.03;5029246;28;20037;-77
2023/05/16 03:44:44;;;;;;;6.15;1.05;;;;;;;7.03;100.00;101611.19;5046454;28;20037;-77
2023/05/16 03:47:12;;;;;;;5.38;1.52;;;;;;;7.02;100.00;101614.75;5041086;28;20040;-77
2023/05/16 03:49:40;;;;;;;7.57;1.08;;;;;;;6.99;100.00;101626.28;5049997;28;20025;-77
2023/05/16 03:52:09;;;;;;;5.72;1.10;;;;;;;6.95;100.00;101623.00;5049341;28;20501;-77
2023/05/16 03:54:37;;;;;;;6.53;1.08;;;;;;;6.93;100.00;101621.41;5050820;28;20126;-77
2023/05/16 03:57:06;;;;;;;3.88;0.63;;;;;;;6.89;100.00;101627.78;5045515;28;20122;-77
2023/05/16 03:59:35;;;;;;;5.13;1.23;;;;;;;6.86;100.00;101630.59;5032302;28;20044;-77
2023/05/16 04:02:03;;;;;;;8.40;1.13;;;;;;;6.82;100.00;101635.19;5048195;28;20045;-77
2023/05/16 04:04:31;;;;;;;6.18;1.23;;;;;;;6.83;100.00;101632.47;5049256;28;20043;-77
2023/05/16 04:06:59;;;;;;;4.82;1.33;;;;;;;6.81;100.00;101634.34;5043173;28;20400;-75
2023/05/16 04:09:27;;;;;;;11.30;2.65;;;;;;;6.83;100.00;101627.19;5044679;28;20028;-75
2023/05/16 04:11:55;;;;;;;11.05;1.95;;;;;;;6.80;100.00;101637.06;5046595;28;20026;-77
2023/05/16 04:14:24;;;;;;;10.10;1.15;;;;;;;6.79;100.00;101627.47;5043728;28;20028;-77
2023/05/16 04:16:52;;;;;;;3.00;0.93;;;;;;;6.76;100.00;101627.66;5043564;28;20381;-77
2023/05/16 04:19:20;;;;;;;2.63;0.88;;;;;;;6.77;100.00;101622.31;5037798;28;20034;-77
2023/05/16 04:21:47;;;;;;;7.93;1.10;;;;;;;6.77;100.00;101627.56;5041293;28;20029;-77
2023/05/16 04:24:16;;;;;;;4.50;1.10;;;;;;;6.82;100.00;101632.53;5041475;28;20028;-77
2023/05/16 04:26:44;;;;;;;4.30;0.85;;;;;;;6.86;100.00;101634.06;5047514;28;20040;-77
2023/05/16 04:29:13;;;;;;;3.72;1.30;;;;;;;6.90;100.00;101634.72;5055558;28;20044;-77
2023/05/16 04:31:41;;;;;;;3.90;0.98;;;;;;;6.90;100.00;101637.34;5044125;28;20033;-77
2023/05/16 04:34:09;;;;;;;4.60;1.25;;;;;;;6.95;100.00;101636.16;5049343;28;20032;-77
2023/05/16 04:36:37;;;;;;;7.70;1.23;;;;;;;6.93;100.00;101638.03;5038819;28;20111;-77
2023/05/16 04:39:05;;;;;;;5.57;1.10;;;;;;;6.93;100.00;101638.03;5039492;28;20542;-77
2023/05/16 04:41:34;;;;;;;4.45;1.23;;;;;;;6.90;100.00;101638.22;5049210;28;20035;-77
2023/05/16 04:44:03;;;;;;;4.25;0.70;;;;;;;6.86;100.00;101641.09;5043431;28;20033;-77
2023/05/16 04:46:31;;;;;;;6.90;0.77;;;;;;;6.72;100.00;101640.13;5040140;28;20028;-77
2023/05/16 04:48:59;;;;;;;3.35;1.10;;;;;;;6.67;100.00;101640.38;5046210;28;20028;-77
2023/05/16 04:51:27;;;;;;;2.88;0.93;;;;;;;6.65;100.00;101630.91;5039509;28;20039;-77
2023/05/16 04:53:56;;;;;;;3.45;1.05;;;;;;;6.67;100.00;101629.88;5030816;28;20028;-77
2023/05/16 04:56:26;;;;;;;4.88;1.05;;;;;;;6.68;100.00;101634.22;5038866;28;20413;-77
2023/05/16 04:58:55;;;;;;;5.18;1.10;;;;;;;6.65;100.00;101637.03;5041490;28;20033;-77
2023/05/16 05:01:23;;;;;;;4.80;0.85;;;;;;;6.65;100.00;101639.66;5036293;28;20044;-77
2023/05/16 05:03:52;;;;;;;15.68;2.55;;;;;;;6.66;100.00;101643.97;5043567;28;20032;-77
2023/05/16 05:06:20;;;;;;;6.47;1.10;;;;;;;6.63;100.00;101645.91;5044705;28;20082;-77
2023/05/16 05:08:49;;;;;;;4.55;1.00;;;;;;;6.64;100.00;101645.81;5042782;28;20112;-77
2023/05/16 05:11:17;;;;;;;2.30;0.80;;;;;;;6.65;100.00;101644.03;5045555;28;20037;-77
2023/05/16 05:13:46;;;;;;;3.38;0.77;;;;;;;6.63;100.00;101651.16;5027213;28;20441;-77
2023/05/16 05:16:14;;;;;;;3.35;1.08;;;;;;;6.58;100.00;101654.06;5036332;28;20039;-77
2023/05/16 05:18:43;;;;;;;4.72;0.82;;;;;;;6.56;100.00;101654.16;5038603;28;20112;-75
2023/05/16 05:21:11;;;;;;;4.05;1.20;;;;;;;6.54;100.00;101657.81;5042925;28;20446;-75
2023/05/16 05:23:39;;;;;;;5.10;1.30;;;;;;;6.57;100.00;101653.22;5042936;28;20082;-77
2023/05/16 05:26:07;;;;;;;2.85;0.90;;;;;;;6.56;100.00;101663.81;5041825;28;20041;-77
2023/05/16 05:28:36;;;;;;;3.90;1.08;;;;;;;6.61;100.00;101663.56;5046059;28;20060;-77
2023/05/16 05:31:05;;;;;;;2.45;0.80;;;;;;;6.64;100.00;101664.22;4995250;28;20525;-77
2023/05/16 05:33:34;;;;;;;3.25;1.00;;;;;;;6.69;100.00;101669.19;4981380;28;20041;-76
2023/05/16 05:36:04;;;;;;;3.28;0.65;;;;;;;6.75;100.00;101673.28;5044310;28;20038;-77
2023/05/16 05:38:32;;;;;;;4.85;1.38;;;;;;;6.75;100.00;101675.91;5045329;28;20083;-77
2023/05/16 05:40:59;;;;;;;5.93;1.30;;;;;;;6.82;100.00;101674.59;5046032;28;20032;-76
2023/05/16 05:43:27;;;;;;;7.05;1.55;;;;;;;6.83;100.00;101671.06;5046479;28;20037;-76
2023/05/16 05:45:55;;;;;;;6.72;0.82;;;;;;;6.90;100.00;101675.00;5038127;28;20032;-77
2023/05/16 05:48:23;;;;;;;7.55;1.30;;;;;;;6.92;100.00;101672.28;5030689;28;20045;-76
2023/05/16 05:50:52;;;;;;;3.50;1.30;;;;;;;6.99;100.00;101676.22;5048766;28;20033;-76
2023/05/16 05:53:20;;;;;;;7.75;1.38;;;;;;;7.01;100.00;101673.50;5036144;28;20102;-77
2023/05/16 05:55:50;;;;;;;7.05;1.00;;;;;;;7.10;100.00;101675.63;5048681;28;20044;-76
2023/05/16 05:58:22;;;;;;;4.35;1.30;;;;;;;7.14;100.00;101669.25;5042780;28;20056;-77
2023/05/16 06:00:51;;;;;;;6.72;0.98;;;;;;;7.22;100.00;101673.19;5044272;28;20615;-77
2023/05/16 06:03:20;;;;;;;7.10;1.10;;;;;;;7.31;100.00;101670.03;5063590;28;20485;-77
2023/05/16 06:05:48;;;;;;;4.05;1.13;;;;;;;7.34;100.00;101682.13;5046990;28;20033;-77
2023/05/16 06:08:15;;;;;;;3.58;1.00;;;;;;;7.41;100.00;101683.44;5047242;28;20037;-76
2023/05/16 06:10:43;;;;;;;5.75;1.38;;;;;;;7.43;100.00;101690.31;5046175;28;20100;-76
2023/05/16 06:13:11;;;;;;;6.95;1.80;;;;;;;7.52;100.00;101691.53;5035624;28;20033;-76
2023/05/16 06:15:39;;;;;;;10.95;1.63;;;;;;;7.50;100.00;101688.16;5042543;28;20029;-76
2023/05/16 06:18:07;;;;;;;5.57;1.10;;;;;;;7.51;100.00;101696.91;5046960;28;20068;-77
2023/05/16 06:20:35;;;;;;;3.05;1.20;;;;;;;7.50;100.00;101692.56;5045658;28;20037;-76
2023/05/16 06:23:02;;;;;;;5.00;1.17;;;;;;;7.55;100.00;101691.34;5047708;28;20044;-77
2023/05/16 06:25:30;;;;;;;7.55;0.98;;;;;;;7.51;100.00;101689.84;5041017;28;20492;-77
2023/05/16 06:28:00;;;;;;;4.97;1.50;;;;;;;7.59;100.00;101702.53;5039797;28;20055;-76
2023/05/16 06:30:30;;;;;;;13.00;2.03;;;;;;;7.65;100.00;101702.16;5046063;28;20040;-77
2023/05/16 06:32:59;;;;;;;5.25;1.48;;;;;;;7.74;100.00;101703.38;5037100;28;20044;-77
2023/05/16 06:35:26;;;;;;;9.18;1.35;;;;;;;7.80;100.00;101708.25;5030141;28;20037;-77
2023/05/16 06:37:54;;;;;;;4.65;1.20;;;;;;;7.92;100.00;101713.72;5038322;28;20799;-77
2023/05/16 06:40:22;;;;;;;8.60;1.60;;;;;;;7.99;100.00;101716.81;5043242;28;20040;-77
2023/05/16 06:42:50;;;;;;;8.18;1.63;;;;;;;8.12;100.00;101722.16;5051236;28;20044;-77
2023/05/16 06:45:18;;;;;;;10.77;1.75;;;;;;;8.20;100.00;101725.16;5050263;28;20086;-77
2023/05/16 06:47:46;;;;;;;6.05;1.17;;;;;;;8.22;100.00;101710.09;5051959;28;20033;-76
2023/05/16 06:50:14;;;;;;;11.00;1.58;;;;;;;8.28;100.00;101714.13;5051383;28;20029;-77
2023/05/16 06:52:42;;;;;;;14.88;2.08;;;;;;;8.38;100.00;101709.97;5031994;28;20405;-77
2023/05/16 06:55:11;;;;;;;9.40;1.92;;;;;;;8.47;100.00;101708.53;5041011;28;20037;-77
2023/05/16 06:57:40;;;;;;;12.50;2.92;;;;;;;8.58;100.00;101712.28;5029812;28;20777;-76
2023/05/16 07:00:08;;;;;;;18.38;2.90;;;;;;;8.61;100.00;101714.72;5047754;28;20059;-76
2023/05/16 07:02:36;;;;;;;15.75;3.50;;;;;;;8.66;100.00;101716.09;5042994;28;20035;-77
2023/05/16 07:05:03;;;;;;;12.75;2.65;;;;;;;8.71;100.00;101718.47;5047871;28;20497;-77
2023/05/16 07:07:32;;;;;;;11.88;2.88;;;;;;;8.81;100.00;101724.81;5050355;28;20035;-76
2023/05/16 07:10:00;;;;;;;21.40;2.50;;;;;;;8.91;100.00;101727.69;5044536;28;20037;-77
2023/05/16 07:12:30;;;;;;;12.10;2.65;;;;;;;8.97;100.00;101723.78;5050771;28;20527;-77
2023/05/16 07:14:58;;;;;;;12.32;2.60;;;;;;;8.98;100.00;101730.75;5047018;28;20045;-77
2023/05/16 07:17:27;;;;;;;14.88;3.17;;;;;;;9.09;100.00;101726.56;5050495;28;20524;-77
2023/05/16 07:19:54;;;;;;;12.20;2.92;;;;;;;9.20;100.00;101731.97;5046057;28;20128;-77
2023/05/16 07:22:22;;;;;;;22.30;4.68;;;;;;;9.42;100.00;101727.88;5046807;28;20041;-77
2023/05/16 07:24:53;;;;;;;15.32;3.25;;;;;;;9.66;100.00;101735.03;5050525;28;20033;-77
2023/05/16 07:27:19;;;;;;;11.45;3.17;;;;;;;10.00;100.00;101727.38;5044935;28;20048;-77
2023/05/16 07:29:47;;;;;;;19.17;3.67;;;;;;;10.38;100.00;101730.06;5045680;28;20029;-77
2023/05/16 07:32:15;;;;;;;20.73;3.97;;;;;;;10.66;100.00;101725.41;5050703;28;20037;-77
2023/05/16 07:34:45;;;;;;;21.27;4.30;;;;;;;10.91;100.00;101719.16;5050035;28;20120;-77
2023/05/16 07:37:15;;;;;;;20.63;4.35;;;;;;;11.14;100.00;101724.53;5034502;28;20397;-77
2023/05/16 07:39:44;;;;;;;19.35;4.05;;;;;;;11.35;100.00;101729.13;5038460;28;20450;-77
2023/05/16 07:42:12;;;;;;;17.48;4.15;;;;;;;11.26;100.00;101730.66;5045076;28;20045;-77
2023/05/16 07:44:39;;;;;;;15.88;4.20;;;;;;;11.06;100.00;101731.34;5036820;28;20024;-77
2023/05/16 07:47:07;;;;;;;21.63;4.72;;;;;;;10.99;100.00;101725.69;5052585;28;20033;-77
2023/05/16 07:49:35;;;;;;;20.23;4.53;;;;;;;11.08;100.00;101717.03;5050734;28;20028;-77
2023/05/16 07:52:03;;;;;;;19.73;4.13;;;;;;;11.10;100.00;101719.56;5043723;28;20265;-77
2023/05/16 07:54:32;;;;;;;25.98;4.93;;;;;;;11.16;100.00;101724.41;5042618;28;20033;-76
2023/05/16 07:56:59;;;;;;;22.52;4.80;;;;;;;11.04;100.00;101732.31;5030267;28;20081;-77
2023/05/16 07:59:28;;;;;;;22.33;5.13;;;;;;;10.85;100.00;101735.47;5041520;28;20551;-78
2023/05/16 08:01:56;;;;;;;15.65;4.47;;;;;;;10.72;100.00;101737.34;5030793;28;20029;-77
2023/05/16 08:04:23;;;;;;;17.90;4.95;;;;;;;10.70;100.00;101731.31;5045021;28;20040;-77
2023/05/16 08:06:51;;;;;;;17.92;4.22;;;;;;;10.60;100.00;101732.00;5041145;28;20029;-77
2023/05/16 08:09:19;;;;;;;20.15;4.70;;;;;;;10.47;100.00;101732.06;5058863;28;20043;-77
2023/05/16 08:11:47;;;;;;;15.35;4.25;;;;;;;10.38;100.00;101733.53;5025698;28;20449;-77
2023/05/16 08:14:15;;;;;;;19.67;4.40;;;;;;;10.49;100.00;101732.81;5028442;28;20084;-78
2023/05/16 08:16:42;;;;;;;17.75;4.43;;;;;;;10.49;100.00;101742.53;5035371;28;20493;-77
2023/05/16 08:19:11;;;;;;;29.75;6.18;;;;;;;10.56;100.00;101745.56;5042136;28;20033;-77
2023/05/16 08:21:39;;;;;;;24.75;5.30;;;;;;;10.57;100.00;101741.97;5043069;28;20456;-75
2023/05/16 08:24:09;;;;;;;23.77;5.03;;;;;;;10.56;100.00;101741.09;5041408;28;20508;-75
2023/05/16 08:26:37;;;;;;;21.33;5.45;;;;;;;10.57;100.00;101742.81;5040962;28;20040;-77
2023/05/16 08:29:07;;;;;;;17.38;4.05;;;;;;;10.73;100.00;101742.53;5032700;28;20032;-77
2023/05/16 08:31:37;;;;;;;21.05;5.03;;;;;;;10.94;100.00;101741.06;5057201;28;20037;-77
2023/05/16 08:34:08;;;;;;;15.35;4.35;;;;;;;11.19;100.00;101736.53;5047561;28;20029;-77
2023/05/16 08:36:38;;;;;;;19.88;4.43;;;;;;;11.34;100.00;101748.59;5041392;28;20044;-77
2023/05/16 08:39:10;;;;;;;16.92;4.43;;;;;;;11.32;100.00;101745.25;5051565;28;20037;-77
2023/05/16 08:41:40;;;;;;;14.52;4.93;;;;;;;11.29;100.00;101751.59;5036379;28;20029;-75
2023/05/16 08:44:09;;;;;;;22.50;4.72;;;;;;;11.26;100.00;101740.44;5036846;28;20553;-75
2023/05/16 08:46:41;;;;;;;20.58;4.78;;;;;;;11.23;100.00;101745.94;5031502;28;20029;-77
2023/05/16 08:49:10;;;;;;;20.30;4.80;;;;;;;11.18;100.00;101748.09;5047056;28;20127;-77
2023/05/16 08:51:38;;;;;;;18.08;4.90;;;;;;;11.17;100.00;101747.25;5041126;28;20029;-77
2023/05/16 08:54:12;;;;;;;23.55;4.85;;;;;;;11.38;100.00;101750.09;5022927;28;20036;-77
2023/05/16 08:56:42;;;;;;;14.23;4.50;;;;;;;11.44;100.00;101751.41;5043520;28;20396;-77
2023/05/16 08:59:13;;;;;;;19.63;4.93;;;;;;;11.59;100.00;101746.75;5045479;28;20029;-77
2023/05/16 09:01:41;;;;;;;19.90;4.90;;;;;;;11.60;100.00;101755.50;5042549;28;20029;-77
2023/05/16 09:04:11;;;;;;;15.82;4.40;;;;;;;11.62;100.00;101750.94;5035251;28;20032;-77
2023/05/16 09:06:40;;;;;;;17.85;4.72;;;;;;;11.75;100.00;101748.19;5025442;28;20041;-77
2023/05/16 09:09:11;;;;;;;19.48;4.60;;;;;;;11.88;100.00;101748.91;5046308;28;20033;-77
2023/05/16 09:11:41;;;;;;;19.67;4.80;;;;;;;11.97;100.00;101735.91;5044464;28;20103;-77
2023/05/16 09:14:09;;;;;;;17.40;4.05;;;;;;;12.01;100.00;101732.88;5022603;28;20061;-77
2023/05/16 09:16:36;;;;;;;17.75;4.82;;;;;;;12.02;100.00;101733.75;5044300;28;20111;-77
2023/05/16 09:19:04;;;;;;;16.33;4.88;;;;;;;12.03;100.00;101736.25;5029645;28;20044;-77
2023/05/16 09:21:34;;;;;;;17.65;4.82;;;;;;;12.15;100.00;101733.63;5024975;28;20512;-77
2023/05/16 09:24:06;;;;;;;15.82;4.50;;;;;;;12.22;100.00;101736.63;5044648;28;20029;-77
2023/05/16 09:26:38;;;;;;;13.57;4.93;;;;;;;12.31;100.00;101738.53;5041969;28;20028;-78
2023/05/16 09:29:12;;;;;;;13.93;5.03;;;;;;;12.43;100.00;101733.19;5041555;28;20579;-77
2023/05/16 09:31:42;;;;;;;13.48;4.50;;;;;;;12.45;100.00;101744.53;5040821;28;20056;-77
2023/05/16 09:34:12;;;;;;;19.13;5.45;;;;;;;12.52;100.00;101735.94;5058162;28;20397;-77
2023/05/16 09:36:43;;;;;;;16.52;4.45;;;;;;;12.69;100.00;101732.88;5033097;28;20170;-77
2023/05/16 09:39:15;;;;;;;13.30;5.43;;;;;;;12.76;100.00;101734.06;5044218;28;20167;-77
2023/05/16 09:41:45;;;;;;;14.10;4.43;;;;;;;12.78;100.00;101740.09;5039037;28;20038;-78
2023/05/16 09:44:18;;;;;;;13.68;4.80;;;;;;;12.87;100.00;101735.81;5043154;28;20035;-77
2023/05/16 09:46:47;;;;;;;15.27;4.50;;;;;;;13.09;100.00;101745.47;5041081;28;20033;-77
2023/05/16 09:49:14;;;;;;;15.10;4.55;;;;;;;13.24;100.00;101748.66;5043638;28;20029;-78
2023/05/16 09:51:44;;;;;;;11.02;4.47;;;;;;;13.37;100.00;101744.97;5041504;28;20546;-78
2023/05/16 09:54:12;;;;;;;19.42;4.40;;;;;;;13.40;100.00;101747.38;5042492;28;20034;-78
2023/05/16 09:56:50;;;;;;;12.63;4.15;;;;;;;13.42;100.00;101750.75;5039153;28;20405;-77
2023/05/16 09:59:18;;;;;;;14.45;3.83;;;;;;;13.32;100.00;101749.81;5037886;28;20033;-77
2023/05/16 10:01:47;;;;;;;13.30;4.05;;;;;;;13.34;100.00;101745.22;5035368;28;20037;-77
2023/05/16 10:04:15;;;;;;;14.23;4.18;;;;;;;13.35;100.00;101746.91;5041599;28;20588;-78
2023/05/16 10:06:45;;;;;;;11.68;3.10;;;;;;;13.48;100.00;101742.25;5045048;28;20041;-78
2023/05/16 10:09:15;;;;;;;15.52;3.70;;;;;;;13.51;100.00;101731.38;5024395;28;20116;-77
2023/05/16 10:11:44;;;;;;;11.35;3.20;;;;;;;13.55;100.00;101741.75;5038552;28;20037;-77
2023/05/16 10:14:13;;;;;;;14.45;3.50;;;;;;;13.69;100.00;101749.38;5043008;28;20044;-77
2023/05/16 10:16:43;;;;;;;10.75;2.72;;;;;;;13.73;100.00;101753.44;5047852;28;20767;-77
2023/05/16 10:19:11;;;;;;;14.57;3.45;;;;;;;13.71;100.00;101747.41;5037516;28;20033;-78
2023/05/16 10:21:46;;;;;;;9.75;3.08;;;;;;;13.62;100.00;101745.53;5027662;28;20060;-77
2023/05/16 10:24:22;;;;;;;11.00;3.05;;;;;;;13.55;100.00;101747.06;5033585;28;20103;-78
2023/05/16 10:26:52;;;;;;;11.45;2.97;;;;;;;13.61;100.00;101743.88;5039786;28;20099;-78
2023/05/16 10:29:23;;;;;;;13.35;3.15;;;;;;;13.80;100.00;101742.28;5042947;28;20035;-77
2023/05/16 10:31:53;;;;;;;17.98;3.58;;;;;;;13.93;100.00;101747.38;5050263;28;20044;-78
2023/05/16 10:34:22;;;;;;;12.45;3.45;;;;;;;13.98;100.00;101745.97;5043809;28;20049;-78
2023/05/16 10:36:51;;;;;;;10.65;3.30;;;;;;;14.13;100.00;101745.59;5049158;28;20032;-78
2023/05/16 10:39:20;;;;;;;14.60;3.72;;;;;;;14.27;99.12;101745.22;5045803;28;20036;-78
2023/05/16 10:41:48;;;;;;;9.63;3.38;;;;;;;14.26;97.54;101742.69;5048345;28;20056;-78
2023/05/16 10:44:18;;;;;;;13.38;4.03;;;;;;;14.30;99.56;101738.78;5045920;28;20037;-78
2023/05/16 10:46:47;;;;;;;8.98;3.42;;;;;;;14.43;100.00;101738.53;5047068;28;20445;-78
2023/05/16 10:49:21;;;;;;;14.52;2.95;;;;;;;14.47;100.00;101745.28;5040234;28;20127;-78
2023/05/16 10:52:09;;;;;;;13.85;4.22;;;;;;;14.43;99.53;101740.38;5046984;28;20037;-78
2023/05/16 10:54:41;;;;;;;13.85;3.75;;;;;;;14.45;99.11;101741.03;5044846;28;20039;-78
2023/05/16 10:57:16;;;;;;;13.98;3.50;;;;;;;14.53;99.77;101738.53;5048849;28;20132;-78
2023/05/16 10:59:48;;;;;;;11.50;4.00;;;;;;;14.60;100.00;101733.50;5047710;28;20520;-78
2023/05/16 11:02:27;;;;;;;16.38;3.40;;;;;;;14.78;100.00;101732.81;5037603;28;20047;-78
2023/05/16 11:04:58;;;;;;;14.68;3.13;;;;;;;14.81;100.00;101738.72;5040944;28;20028;-78
2023/05/16 11:07:34;;;;;;;8.90;3.30;;;;;;;14.81;97.00;101732.56;5047300;28;20835;-78
2023/05/16 11:10:05;;;;;;;13.13;3.45;;;;;;;14.84;98.96;101738.44;5047404;28;20111;-78
2023/05/16 11:12:43;;;;;;;13.73;4.00;;;;;;;14.94;96.87;101734.94;5044490;28;20032;-78
2023/05/16 11:15:33;;;;;;;16.30;3.78;;;;;;;14.96;94.44;101722.31;5046729;28;20401;-78
2023/05/16 11:18:09;;;;;;;15.98;3.60;;;;;;;14.80;95.81;101728.22;5048002;28;20029;-78
2023/05/16 11:20:40;;;;;;;13.75;3.95;;;;;;;14.62;96.13;101723.59;5037932;28;20037;-78
2023/05/16 11:23:16;;;;;;;10.85;3.13;;;;;;;14.67;95.47;101721.31;5029584;28;20056;-78
2023/05/16 11:25:47;;;;;;;;;;;;;;;14.59;92.26;101723.84;5035874;28;20025;-78
2023/05/16 11:28:18;;;;;;;13.10;3.55;;;;;;;14.62;90.92;101718.25;5050282;28;20379;-78
2023/05/16 11:30:50;;;;;;;8.15;3.55;;;;;;;14.64;91.13;101717.13;5048647;28;20087;-78